PWSweather.com
Personal Weather Stations
Station Observations
MAHIABEACH
Mahia Beach, Mahia Peninsula Hawkes Bay -NZ 4108

Mahia BeachMahia Peninsula Hawkes Bay -NZ 4108

Lat: -39.08872, Lon: 177.878209

Elevation: 72

Station Type: WS2083

http://wairoa.net/mahia/index.htm

Latest ConditionsUpdated 8:00:05 PM GMT+12:12 Thursday, Jun 20, 2019
Currently Today's Max Today's Min Today's Average
Temperature 52.7°F11.5°C 60.8°F16.0°C 47.1°F8.4°C 53.6°F12.0°C
Dew Point 43.6°F6.4°C 52.3°F11.3°C 37.5°F3.1°C 44.3°F6.8°C
Winds 5.1 mph WNW8.2 kmh WNW 8.5 mph -13.7 kmh - - 4.0 mph 6.4 kmh
Wind Gusts 9.8 mph15.8 kmh 17.4 mph28.0 kmh - -
Humidity 71% 94% 46% 72%
Pressure 30.14 in1020.7 mb 30.29 in1025.7 mb 30.14 in1020.7 mb -
Precipitation - 0.02 in0.5 mm - -
Hour Temp Dew Point Humidity Winds Wind Gusts Pressure Precip Precip Rate Daily Precip Total
08:00 PM 52.7°F11.5°C 43.6°F6.4°C 71% 5.1 mph WNW8.2 kmh WNW 9.8 mph15.8 kmh 30.14 in1020.7 mb 0.00 in0.0 mm 0.00 in0.0 mm 0.02 in0.5 mm
07:45 PM 52.5°F11.4°C 43.8°F6.6°C 72% 5.0 mph WNW8.0 kmh WNW 9.8 mph15.8 kmh 30.14 in1020.7 mb 0.00 in0.0 mm 0.00 in0.0 mm 0.02 in0.5 mm
07:30 PM 52.5°F11.4°C 43.8°F6.6°C 72% 3.4 mph W5.5 kmh W 7.6 mph12.2 kmh 30.15 in1021.0 mb 0.00 in0.0 mm 0.00 in0.0 mm 0.02 in0.5 mm
07:15 PM 53.1°F11.7°C 44.3°F6.8°C 72% 4.3 mph W6.9 kmh W 11.4 mph18.3 kmh 30.15 in1021.0 mb 0.00 in0.0 mm 0.00 in0.0 mm 0.02 in0.5 mm
07:00 PM 53.4°F11.9°C 44.3°F6.8°C 71% 5.7 mph WNW9.2 kmh WNW 12.1 mph19.5 kmh 30.14 in1020.7 mb 0.00 in0.0 mm 0.00 in0.0 mm 0.02 in0.5 mm
06:45 PM 53.6°F12.0°C 44.1°F6.7°C 70% 7.0 mph WSW11.3 kmh WSW 17.4 mph28.0 kmh 30.14 in1020.7 mb 0.00 in0.0 mm 0.00 in0.0 mm 0.02 in0.5 mm
06:30 PM 54.0°F12.2°C 44.4°F6.9°C 70% 8.4 mph WSW13.5 kmh WSW 16.8 mph27.0 kmh 30.14 in1020.7 mb 0.00 in0.0 mm 0.00 in0.0 mm 0.02 in0.5 mm
06:15 PM 54.0°F12.2°C 44.4°F6.9°C 70% 7.0 mph WNW11.3 kmh WNW 15.2 mph24.5 kmh 30.15 in1021.0 mb 0.00 in0.0 mm 0.00 in0.0 mm 0.02 in0.5 mm
06:00 PM 53.8°F12.1°C 43.9°F6.6°C 69% 4.7 mph SW7.6 kmh SW 13.0 mph20.9 kmh 30.14 in1020.7 mb 0.00 in0.0 mm 0.00 in0.0 mm 0.02 in0.5 mm
05:45 PM 54.0°F12.2°C 44.0°F6.7°C 69% 6.7 mph WSW10.8 kmh WSW 16.8 mph27.0 kmh 30.14 in1020.7 mb 0.00 in0.0 mm 0.00 in0.0 mm 0.02 in0.5 mm
05:30 PM 53.8°F12.1°C 43.5°F6.4°C 68% 4.1 mph NW6.6 kmh NW 10.7 mph17.2 kmh 30.14 in1020.7 mb 0.00 in0.0 mm 0.00 in0.0 mm 0.02 in0.5 mm
05:15 PM 53.6°F12.0°C 42.5°F5.8°C 66% 4.1 mph S6.6 kmh S 9.8 mph15.8 kmh 30.15 in1021.0 mb 0.00 in0.0 mm 0.00 in0.0 mm 0.02 in0.5 mm
05:00 PM 54.0°F12.2°C 40.8°F4.9°C 61% 3.7 mph NW6.0 kmh NW 11.4 mph18.3 kmh 30.15 in1021.0 mb 0.00 in0.0 mm 0.00 in0.0 mm 0.02 in0.5 mm
04:45 PM 54.9°F12.7°C 40.8°F4.9°C 59% 4.3 mph NNW6.9 kmh NNW 15.2 mph24.5 kmh 30.15 in1021.0 mb 0.00 in0.0 mm 0.00 in0.0 mm 0.02 in0.5 mm
04:30 PM 55.8°F13.2°C 41.7°F5.4°C 59% 6.3 mph SW10.1 kmh SW 15.2 mph24.5 kmh 30.16 in1021.3 mb 0.00 in0.0 mm 0.00 in0.0 mm 0.02 in0.5 mm
04:15 PM 57.2°F14.0°C 42.6°F5.9°C 58% 4.0 mph W6.4 kmh W 12.1 mph19.5 kmh 30.16 in1021.3 mb 0.00 in0.0 mm 0.00 in0.0 mm 0.02 in0.5 mm
04:00 PM 57.6°F14.2°C 42.5°F5.8°C 57% 4.3 mph NW6.9 kmh NW 11.4 mph18.3 kmh 30.17 in1021.7 mb 0.00 in0.0 mm 0.00 in0.0 mm 0.02 in0.5 mm
03:45 PM 57.6°F14.2°C 42.5°F5.8°C 57% 6.6 mph W10.6 kmh W 16.8 mph27.0 kmh 30.17 in1021.7 mb 0.00 in0.0 mm 0.00 in0.0 mm 0.02 in0.5 mm
03:30 PM 58.6°F14.8°C 42.1°F5.6°C 54% 5.0 mph WSW8.0 kmh WSW 13.0 mph20.9 kmh 30.17 in1021.7 mb 0.00 in0.0 mm 0.00 in0.0 mm 0.02 in0.5 mm
03:15 PM 59.5°F15.3°C 40.9°F4.9°C 50% 3.9 mph WNW6.3 kmh WNW 13.0 mph20.9 kmh 30.17 in1021.7 mb 0.00 in0.0 mm 0.00 in0.0 mm 0.02 in0.5 mm
03:00 PM 60.3°F15.7°C 39.4°F4.1°C 46% 3.8 mph N6.1 kmh N 12.1 mph19.5 kmh 30.16 in1021.3 mb 0.00 in0.0 mm 0.00 in0.0 mm 0.02 in0.5 mm
02:45 PM 60.3°F15.7°C 40.0°F4.4°C 47% 3.8 mph WSW6.1 kmh WSW 12.1 mph19.5 kmh 30.18 in1022.0 mb 0.00 in0.0 mm 0.00 in0.0 mm 0.02 in0.5 mm
02:30 PM 60.1°F15.6°C 40.9°F4.9°C 49% 4.4 mph W7.1 kmh W 13.6 mph21.9 kmh 30.18 in1022.0 mb 0.00 in0.0 mm 0.00 in0.0 mm 0.02 in0.5 mm
02:15 PM 60.3°F15.7°C 41.6°F5.3°C 50% 5.2 mph WSW8.4 kmh WSW 12.1 mph19.5 kmh 30.18 in1022.0 mb 0.00 in0.0 mm 0.00 in0.0 mm 0.02 in0.5 mm
02:00 PM 60.3°F15.7°C 41.0°F5.0°C 49% 5.0 mph WSW8.0 kmh WSW 10.7 mph17.2 kmh 30.19 in1022.4 mb 0.00 in0.0 mm 0.00 in0.0 mm 0.02 in0.5 mm
01:45 PM 60.8°F16.0°C 41.5°F5.3°C 49% 3.8 mph WSW6.1 kmh WSW 11.4 mph18.3 kmh 30.20 in1022.7 mb 0.01 in0.3 mm 0.00 in0.0 mm 0.02 in0.5 mm
01:30 PM 60.3°F15.7°C 42.1°F5.6°C 51% 4.8 mph WSW7.7 kmh WSW 11.4 mph18.3 kmh 30.20 in1022.7 mb 0.01 in0.3 mm 0.00 in0.0 mm 0.02 in0.5 mm
01:15 PM 58.6°F14.8°C 40.1°F4.5°C 50% 6.6 mph WSW10.6 kmh WSW 13.0 mph20.9 kmh 30.20 in1022.7 mb 0.01 in0.3 mm 0.00 in0.0 mm 0.02 in0.5 mm
01:00 PM 57.6°F14.2°C 37.5°F3.1°C 47% 7.7 mph WSW12.4 kmh WSW 13.6 mph21.9 kmh 30.20 in1022.7 mb 0.01 in0.3 mm 0.01 in0.3 mm 0.02 in0.5 mm
12:45 PM 57.6°F14.2°C 39.1°F3.9°C 50% 8.5 mph WSW13.7 kmh WSW 14.5 mph23.3 kmh 30.21 in1023.0 mb 0.00 in0.0 mm 0.00 in0.0 mm 0.01 in0.3 mm
12:30 PM 58.6°F14.8°C 40.6°F4.8°C 51% 5.4 mph WSW8.7 kmh WSW 11.4 mph18.3 kmh 30.22 in1023.4 mb 0.00 in0.0 mm 0.00 in0.0 mm 0.01 in0.3 mm
12:15 PM 58.6°F14.8°C 40.6°F4.8°C 51% 6.2 mph WSW10.0 kmh WSW 12.1 mph19.5 kmh 30.23 in1023.7 mb 0.00 in0.0 mm 0.00 in0.0 mm 0.01 in0.3 mm
12:00 PM 57.6°F14.2°C 39.6°F4.2°C 51% 7.2 mph WSW11.6 kmh WSW 11.4 mph18.3 kmh 30.24 in1024.0 mb 0.00 in0.0 mm 0.00 in0.0 mm 0.01 in0.3 mm
11:45 AM 58.6°F14.8°C 40.1°F4.5°C 50% 5.4 mph WSW8.7 kmh WSW 11.4 mph18.3 kmh 30.25 in1024.4 mb 0.00 in0.0 mm 0.00 in0.0 mm 0.01 in0.3 mm
11:30 AM 57.6°F14.2°C 40.6°F4.8°C 53% 5.2 mph WSW8.4 kmh WSW 12.1 mph19.5 kmh 30.25 in1024.4 mb 0.00 in0.0 mm 0.00 in0.0 mm 0.01 in0.3 mm
11:15 AM 57.7°F14.3°C 41.2°F5.1°C 54% 4.8 mph W7.7 kmh W 12.1 mph19.5 kmh 30.26 in1024.7 mb 0.00 in0.0 mm 0.00 in0.0 mm 0.01 in0.3 mm
11:00 AM 57.6°F14.2°C 41.5°F5.3°C 55% 6.0 mph WNW9.7 kmh WNW 13.6 mph21.9 kmh 30.27 in1025.1 mb 0.00 in0.0 mm 0.00 in0.0 mm 0.01 in0.3 mm
10:45 AM 57.2°F14.0°C 41.2°F5.1°C 55% 5.7 mph WSW9.2 kmh WSW 12.1 mph19.5 kmh 30.27 in1025.1 mb 0.00 in0.0 mm 0.00 in0.0 mm 0.01 in0.3 mm
10:30 AM 57.0°F13.9°C 41.9°F5.5°C 57% 5.9 mph W9.5 kmh W 13.6 mph21.9 kmh 30.27 in1025.1 mb 0.00 in0.0 mm 0.00 in0.0 mm 0.01 in0.3 mm
10:15 AM 57.2°F14.0°C 43.5°F6.4°C 60% 5.9 mph W9.5 kmh W 8.3 mph13.4 kmh 30.27 in1025.1 mb 0.00 in0.0 mm 0.00 in0.0 mm 0.01 in0.3 mm
10:00 AM 55.2°F12.9°C 52.3°F11.3°C 90% 3.8 mph NW6.1 kmh NW 5.4 mph8.7 kmh 30.28 in1025.4 mb 0.00 in0.0 mm 0.00 in0.0 mm 0.01 in0.3 mm
09:45 AM 55.2°F12.9°C 52.3°F11.3°C 90% 3.8 mph NW6.1 kmh NW 5.4 mph8.7 kmh 30.28 in1025.4 mb 0.00 in0.0 mm 0.00 in0.0 mm 0.01 in0.3 mm
09:30 AM 47.1°F8.4°C 45.5°F7.5°C 94% Calm Calm -- 30.29 in1025.7 mb 0.00 in0.0 mm 0.00 in0.0 mm 0.01 in0.3 mm
09:15 AM 47.1°F8.4°C 45.5°F7.5°C 94% Calm Calm -- 30.29 in1025.7 mb 0.00 in0.0 mm 0.00 in0.0 mm 0.01 in0.3 mm
09:00 AM 47.1°F8.4°C 45.5°F7.5°C 94% Calm Calm -- 30.29 in1025.7 mb 0.00 in0.0 mm 0.00 in0.0 mm 0.01 in0.3 mm
08:45 AM 48.2°F9.0°C 46.6°F8.1°C 94% Calm Calm -- 30.28 in1025.4 mb 0.00 in0.0 mm 0.00 in0.0 mm 0.01 in0.3 mm
08:30 AM 48.2°F9.0°C 46.6°F8.1°C 94% Calm Calm -- 30.28 in1025.4 mb 0.00 in0.0 mm 0.00 in0.0 mm 0.01 in0.3 mm
08:15 AM 48.2°F9.0°C 46.6°F8.1°C 94% Calm Calm -- 30.28 in1025.4 mb 0.00 in0.0 mm 0.00 in0.0 mm 0.01 in0.3 mm
08:00 AM 48.2°F9.0°C 46.6°F8.1°C 94% Calm Calm -- 30.27 in1025.1 mb 0.00 in0.0 mm 0.00 in0.0 mm 0.01 in0.3 mm
07:45 AM 48.2°F9.0°C 46.6°F8.1°C 94% Calm Calm -- 30.27 in1025.1 mb 0.00 in0.0 mm 0.00 in0.0 mm 0.01 in0.3 mm
07:30 AM 48.2°F9.0°C 46.6°F8.1°C 94% Calm Calm -- 30.26 in1024.7 mb 0.01 in0.3 mm 0.00 in0.0 mm 0.01 in0.3 mm
07:15 AM 48.2°F9.0°C 46.6°F8.1°C 94% Calm Calm -- 30.27 in1025.1 mb 0.01 in0.3 mm 0.00 in0.0 mm 0.01 in0.3 mm
07:00 AM 48.2°F9.0°C 46.6°F8.1°C 94% Calm Calm -- 30.26 in1024.7 mb 0.01 in0.3 mm 0.00 in0.0 mm 0.01 in0.3 mm
06:45 AM 48.2°F9.0°C 46.6°F8.1°C 94% Calm Calm -- 30.26 in1024.7 mb 0.01 in0.3 mm 0.04 in1.0 mm 0.01 in0.3 mm
06:30 AM 51.3°F10.7°C 46.3°F7.9°C 83% 3.8 mph E6.1 kmh E 6.0 mph9.7 kmh 30.26 in1024.7 mb 0.00 in0.0 mm 0.00 in0.0 mm 0.00 in0.0 mm
06:15 AM 51.3°F10.7°C 46.3°F7.9°C 83% 3.8 mph E6.1 kmh E 6.0 mph9.7 kmh 30.26 in1024.7 mb 0.00 in0.0 mm 0.00 in0.0 mm 0.00 in0.0 mm
06:00 AM 51.3°F10.7°C 46.3°F7.9°C 83% 3.8 mph E6.1 kmh E 6.0 mph9.7 kmh 30.25 in1024.4 mb 0.00 in0.0 mm 0.00 in0.0 mm 0.00 in0.0 mm
05:45 AM 51.3°F10.7°C 46.3°F7.9°C 83% 3.8 mph E6.1 kmh E 6.0 mph9.7 kmh 30.25 in1024.4 mb 0.00 in0.0 mm 0.00 in0.0 mm 0.00 in0.0 mm
05:30 AM 51.3°F10.7°C 46.3°F7.9°C 83% 3.8 mph E6.1 kmh E 6.0 mph9.7 kmh 30.24 in1024.0 mb 0.00 in0.0 mm 0.00 in0.0 mm 0.00 in0.0 mm
05:15 AM 51.3°F10.7°C 46.3°F7.9°C 83% 3.8 mph E6.1 kmh E 6.0 mph9.7 kmh 30.25 in1024.4 mb 0.00 in0.0 mm 0.00 in0.0 mm 0.00 in0.0 mm
05:00 AM 51.3°F10.7°C 46.3°F7.9°C 83% 3.8 mph E6.1 kmh E 6.0 mph9.7 kmh 30.25 in1024.4 mb 0.00 in0.0 mm 0.00 in0.0 mm 0.00 in0.0 mm
04:45 AM 51.3°F10.7°C 46.3°F7.9°C 83% 3.8 mph E6.1 kmh E 6.0 mph9.7 kmh 30.24 in1024.0 mb 0.00 in0.0 mm 0.00 in0.0 mm 0.00 in0.0 mm
04:30 AM 51.3°F10.7°C 46.3°F7.9°C 83% 3.8 mph E6.1 kmh E 6.0 mph9.7 kmh 30.25 in1024.4 mb 0.00 in0.0 mm 0.00 in0.0 mm 0.00 in0.0 mm
04:15 AM 51.3°F10.7°C 46.3°F7.9°C 83% 3.8 mph E6.1 kmh E 6.0 mph9.7 kmh 30.25 in1024.4 mb 0.00 in0.0 mm 0.00 in0.0 mm 0.00 in0.0 mm
04:00 AM 51.3°F10.7°C 46.3°F7.9°C 83% 3.8 mph E6.1 kmh E 6.0 mph9.7 kmh 30.25 in1024.4 mb 0.00 in0.0 mm 0.00 in0.0 mm 0.00 in0.0 mm
03:45 AM 51.3°F10.7°C 46.3°F7.9°C 83% 3.8 mph E6.1 kmh E 6.0 mph9.7 kmh 30.26 in1024.7 mb 0.00 in0.0 mm 0.00 in0.0 mm 0.00 in0.0 mm
03:30 AM 51.3°F10.7°C 46.3°F7.9°C 83% 3.8 mph E6.1 kmh E 6.0 mph9.7 kmh 30.26 in1024.7 mb 0.00 in0.0 mm 0.00 in0.0 mm 0.00 in0.0 mm
03:15 AM 51.3°F10.7°C 46.3°F7.9°C 83% 3.8 mph E6.1 kmh E 6.0 mph9.7 kmh 30.27 in1025.1 mb 0.00 in0.0 mm 0.00 in0.0 mm 0.00 in0.0 mm
03:00 AM 51.3°F10.7°C 46.3°F7.9°C 83% 3.8 mph E6.1 kmh E 6.0 mph9.7 kmh 30.27 in1025.1 mb 0.00 in0.0 mm 0.00 in0.0 mm 0.00 in0.0 mm
02:45 AM 51.3°F10.7°C 46.3°F7.9°C 83% 3.8 mph E6.1 kmh E 6.0 mph9.7 kmh 30.27 in1025.1 mb 0.00 in0.0 mm 0.00 in0.0 mm 0.00 in0.0 mm
02:30 AM 51.3°F10.7°C 46.3°F7.9°C 83% 3.8 mph E6.1 kmh E 6.0 mph9.7 kmh 30.27 in1025.1 mb 0.00 in0.0 mm 0.00 in0.0 mm 0.00 in0.0 mm
02:15 AM 51.3°F10.7°C 46.3°F7.9°C 83% 3.8 mph E6.1 kmh E 6.0 mph9.7 kmh 30.27 in1025.1 mb 0.00 in0.0 mm 0.00 in0.0 mm 0.00 in0.0 mm
02:00 AM 51.3°F10.7°C 46.3°F7.9°C 83% 3.8 mph E6.1 kmh E 6.0 mph9.7 kmh 30.28 in1025.4 mb 0.00 in0.0 mm 0.00 in0.0 mm 0.00 in0.0 mm
01:45 AM 51.3°F10.7°C 46.3°F7.9°C 83% 3.8 mph E6.1 kmh E 6.0 mph9.7 kmh 30.27 in1025.1 mb 0.00 in0.0 mm 0.00 in0.0 mm 0.00 in0.0 mm
01:30 AM 51.3°F10.7°C 46.3°F7.9°C 83% 3.8 mph E6.1 kmh E 6.0 mph9.7 kmh 30.27 in1025.1 mb 0.00 in0.0 mm 0.00 in0.0 mm 0.00 in0.0 mm
01:15 AM 51.3°F10.7°C 46.3°F7.9°C 83% 3.8 mph E6.1 kmh E 6.0 mph9.7 kmh 30.27 in1025.1 mb 0.00 in0.0 mm 0.00 in0.0 mm 0.00 in0.0 mm
01:00 AM 51.3°F10.7°C 46.3°F7.9°C 83% 3.8 mph E6.1 kmh E 6.0 mph9.7 kmh 30.27 in1025.1 mb 0.00 in0.0 mm 0.00 in0.0 mm 0.00 in0.0 mm
12:45 AM 51.3°F10.7°C 46.3°F7.9°C 83% 3.8 mph E6.1 kmh E 6.0 mph9.7 kmh 30.27 in1025.1 mb 0.00 in0.0 mm 0.00 in0.0 mm 0.00 in0.0 mm
12:30 AM 51.3°F10.7°C 46.3°F7.9°C 83% 3.8 mph E6.1 kmh E 6.0 mph9.7 kmh 30.28 in1025.4 mb 0.00 in0.0 mm 0.00 in0.0 mm 0.00 in0.0 mm
12:15 AM 51.3°F10.7°C 46.3°F7.9°C 83% 3.8 mph E6.1 kmh E 6.0 mph9.7 kmh 30.28 in1025.4 mb 0.00 in0.0 mm 0.00 in0.0 mm 0.00 in0.0 mm
12:00 AM 51.3°F10.7°C 46.3°F7.9°C 83% 3.8 mph E6.1 kmh E 6.0 mph9.7 kmh 30.28 in1025.4 mb 0.00 in0.0 mm 0.00 in0.0 mm 0.00 in0.0 mm